METAR Data
IDs: Format: Raw Decoded Include TAF

Data at: 1015 UTC 13 Aug 2022

EGNM 130950Z 05005KT 010V090 CAVOK 22/12 Q1018